Time;durP1;ratioP1;P1;durP2;ratioP2;P2;SDS_P1;SDS_P2;PMS_P1;PMS_P2;Temp;Humidity;BMP_temperature;BMP_pressure;BME280_temperature;BME280_humidity;BME280_pressure;Samples;Min_cycle;Max_cycle;Signal;HPM_P1;HPM_P2
2023/10/13 00:00:29;;;;;;;40.67;23.33;;;;;;;;;;5037219;28;20444;-81
2023/10/13 00:03:00;;;;;;;47.83;26.53;;;;;;;;;;5036738;28;20937;-81
2023/10/13 00:05:26;;;;;;;45.80;23.90;;;;;;;;;;5036363;28;21041;-82
2023/10/13 00:07:54;;;;;;;48.30;25.80;;;;;;;;;;5036765;28;20796;-82
2023/10/13 00:10:21;;;;;;;45.10;24.73;;;;;;;;;;5036645;28;20436;-81
2023/10/13 00:12:49;;;;;;;51.63;24.27;;;;;;;;;;5036893;28;20458;-82
2023/10/13 00:15:21;;;;;;;54.13;25.60;;;;;;;;;;5037124;28;20461;-81
2023/10/13 00:17:49;;;;;;;50.23;26.60;;;;;;;;;;5036575;28;20434;-81
2023/10/13 00:20:38;;;;;;;47.10;28.00;;;;;;;;;;5036951;28;20449;-81
2023/10/13 00:23:03;;;;;;;47.97;26.80;;;;;;;;;;5036251;28;20492;-81
2023/10/13 00:25:43;;;;;;;53.97;26.67;;;;;;;;;;5034954;28;20539;-81
2023/10/13 00:28:10;;;;;;;47.73;26.63;;;;;;;;;;5037112;28;20432;-81
2023/10/13 00:30:36;;;;;;;50.67;25.60;;;;;;;;;;5036260;28;20415;-81
2023/10/13 00:33:05;;;;;;;48.10;26.73;;;;;;;;;;5037009;28;20496;-82
2023/10/13 00:35:36;;;;;;;57.60;30.27;;;;;;;;;;5036465;28;20437;-81
2023/10/13 00:38:12;;;;;;;52.67;27.87;;;;;;;;;;5035637;28;20420;-81
2023/10/13 00:40:43;;;;;;;56.80;27.83;;;;;;;;;;5035122;28;20441;-81
2023/10/13 00:45:58;;;;;;;56.60;28.97;;;;;;;;;;5035851;28;20467;-81
2023/10/13 00:48:29;;;;;;;59.50;28.67;;;;;;;;;;5036389;28;20445;-81
2023/10/13 00:50:59;;;;;;;59.03;31.77;;;;;;;;;;5036225;28;20469;-81
2023/10/13 00:53:28;;;;;;;56.60;31.17;;;;;;;;;;5036196;28;20475;-81
2023/10/13 00:55:55;;;;;;;56.50;29.27;;;;;;;;;;5034992;28;20464;-82
2023/10/13 00:58:22;;;;;;;58.37;30.50;;;;;;;;;;5036627;28;20433;-81
2023/10/13 01:00:48;;;;;;;61.20;30.50;;;;;;;;;;5034726;28;20460;-81
2023/10/13 01:03:14;;;;;;;63.50;32.30;;;;;;;;;;5035033;28;20876;-81
2023/10/13 01:05:42;;;;;;;64.30;30.87;;;;;;;;;;5035334;28;20305;-81
2023/10/13 01:08:11;;;;;;;72.07;35.57;;;;;;;;;;5035461;28;20440;-81
2023/10/13 01:10:37;;;;;;;69.57;35.83;;;;;;;;;;5035279;28;20445;-81
2023/10/13 01:13:04;;;;;;;66.20;33.53;;;;;;;;;;5034384;28;20445;-83
2023/10/13 01:15:30;;;;;;;77.10;36.90;;;;;;;;;;5035714;28;20498;-81
2023/10/13 01:18:10;;;;;;;71.33;36.27;;;;;;;;;;5036135;28;20473;-82
2023/10/13 01:20:43;;;;;;;78.63;36.30;;;;;;;;;;5035320;28;20193;-80
2023/10/13 01:23:18;;;;;;;94.77;39.00;;;;;;;;;;5036655;28;20425;-82
2023/10/13 01:25:43;;;;;;;90.93;38.80;;;;;;;;;;5035063;28;25286;-81
2023/10/13 01:28:10;;;;;;;96.20;40.23;;;;;;;;;;5036283;28;20440;-82
2023/10/13 01:30:38;;;;;;;89.30;41.93;;;;;;;;;;5035591;28;20202;-80
2023/10/13 01:33:04;;;;;;;87.27;42.23;;;;;;;;;;5036028;28;20447;-83
2023/10/13 01:35:36;;;;;;;96.10;44.17;;;;;;;;;;5035792;28;20436;-80
2023/10/13 01:38:03;;;;;;;88.70;43.03;;;;;;;;;;5034364;28;20480;-81
2023/10/13 01:40:33;;;;;;;93.67;44.80;;;;;;;;;;5033959;28;20441;-81
2023/10/13 01:42:59;;;;;;;83.57;41.37;;;;;;;;;;5034717;28;20503;-80
2023/10/13 01:45:28;;;;;;;103.70;43.23;;;;;;;;;;5034266;28;20464;-80
2023/10/13 01:47:55;;;;;;;92.40;45.10;;;;;;;;;;5036225;28;20523;-80
2023/10/13 01:50:28;;;;;;;87.07;43.40;;;;;;;;;;5035360;28;20452;-80
2023/10/13 01:53:05;;;;;;;95.87;46.53;;;;;;;;;;5018811;28;20449;-80
2023/10/13 01:55:42;;;;;;;92.90;43.20;;;;;;;;;;5033860;28;20445;-80
2023/10/13 01:58:14;;;;;;;80.03;41.27;;;;;;;;;;5035345;28;20898;-82
2023/10/13 02:00:42;;;;;;;87.60;39.20;;;;;;;;;;5033940;28;20806;-81
2023/10/13 02:03:14;;;;;;;89.87;42.43;;;;;;;;;;5035504;28;20449;-81
2023/10/13 02:05:43;;;;;;;78.27;40.57;;;;;;;;;;5034596;28;20459;-81
2023/10/13 02:08:11;;;;;;;83.00;41.23;;;;;;;;;;5034336;28;20443;-81
2023/10/13 02:10:43;;;;;;;90.30;42.43;;;;;;;;;;5035108;28;20953;-81
2023/10/13 02:13:15;;;;;;;77.97;40.87;;;;;;;;;;5018504;28;20445;-82
2023/10/13 02:15:42;;;;;;;80.00;40.87;;;;;;;;;;5035033;28;20424;-81
2023/10/13 02:18:09;;;;;;;81.07;42.20;;;;;;;;;;5035409;28;20545;-81
2023/10/13 02:20:42;;;;;;;79.17;41.37;;;;;;;;;;5035304;28;20472;-82
2023/10/13 02:23:10;;;;;;;81.33;42.17;;;;;;;;;;5018964;28;20475;-81
2023/10/13 02:25:42;;;;;;;81.40;43.23;;;;;;;;;;5034556;28;20483;-81
2023/10/13 02:28:09;;;;;;;73.83;37.93;;;;;;;;;;5035957;28;20915;-82
2023/10/13 02:30:39;;;;;;;80.57;40.83;;;;;;;;;;5033978;28;20456;-82
2023/10/13 02:33:06;;;;;;;80.37;40.33;;;;;;;;;;5035250;28;20938;-82
2023/10/13 02:35:41;;;;;;;85.77;43.17;;;;;;;;;;5035230;28;20441;-81
2023/10/13 02:38:10;;;;;;;83.47;42.27;;;;;;;;;;5035427;28;20952;-80
2023/10/13 02:40:37;;;;;;;81.10;42.97;;;;;;;;;;5035179;28;20444;-81
2023/10/13 02:43:04;;;;;;;85.70;43.03;;;;;;;;;;5035987;28;20436;-80
2023/10/13 02:45:32;;;;;;;82.57;43.73;;;;;;;;;;5035182;28;20535;-83
2023/10/13 02:48:10;;;;;;;80.00;42.73;;;;;;;;;;5035092;28;20437;-82
2023/10/13 02:50:38;;;;;;;76.53;41.40;;;;;;;;;;5034950;28;20444;-82
2023/10/13 02:53:05;;;;;;;82.20;42.37;;;;;;;;;;5035474;28;20442;-82
2023/10/13 02:55:31;;;;;;;87.67;41.70;;;;;;;;;;5034487;28;20445;-81
2023/10/13 02:57:57;;;;;;;81.90;43.47;;;;;;;;;;5036777;28;20534;-81
2023/10/13 03:00:24;;;;;;;88.33;43.90;;;;;;;;;;5038193;28;20432;-81
2023/10/13 03:02:58;;;;;;;86.40;42.77;;;;;;;;;;5038415;28;20293;-81
2023/10/13 03:05:24;;;;;;;90.03;45.00;;;;;;;;;;5039001;28;20511;-81
2023/10/13 03:07:50;;;;;;;87.40;43.30;;;;;;;;;;5038023;28;20507;-81
2023/10/13 03:10:19;;;;;;;81.80;43.40;;;;;;;;;;5039745;28;20444;-81
2023/10/13 03:12:48;;;;;;;83.93;43.67;;;;;;;;;;5021703;28;20476;-81
2023/10/13 03:15:17;;;;;;;78.47;43.10;;;;;;;;;;5039428;28;20461;-81
2023/10/13 03:17:44;;;;;;;83.43;43.03;;;;;;;;;;5039185;28;21009;-81
2023/10/13 03:20:14;;;;;;;85.23;42.90;;;;;;;;;;5039073;28;20965;-81
2023/10/13 03:22:39;;;;;;;84.83;44.90;;;;;;;;;;5038771;28;20519;-81
2023/10/13 03:25:08;;;;;;;81.43;42.73;;;;;;;;;;5037597;28;20453;-81
2023/10/13 03:27:41;;;;;;;87.90;45.10;;;;;;;;;;5038141;28;20236;-81
2023/10/13 03:30:13;;;;;;;82.90;42.60;;;;;;;;;;5039118;28;20432;-81
2023/10/13 03:32:43;;;;;;;83.60;43.60;;;;;;;;;;5037798;28;20542;-81
2023/10/13 03:35:23;;;;;;;79.10;43.00;;;;;;;;;;5038174;28;20966;-82
2023/10/13 03:37:51;;;;;;;89.27;44.03;;;;;;;;;;5036613;28;20568;-81
2023/10/13 03:43:04;;;;;;;88.63;44.03;;;;;;;;;;5037526;28;20892;-81
2023/10/13 03:45:36;;;;;;;82.73;41.80;;;;;;;;;;5036697;28;20503;-81
2023/10/13 03:48:08;;;;;;;76.77;42.60;;;;;;;;;;5038276;28;20496;-82
2023/10/13 03:50:36;;;;;;;82.63;45.03;;;;;;;;;;5038227;28;20460;-82
2023/10/13 03:53:06;;;;;;;73.33;43.27;;;;;;;;;;5038183;28;20935;-80
2023/10/13 03:55:35;;;;;;;82.10;42.57;;;;;;;;;;5037232;28;20449;-80
2023/10/13 03:58:03;;;;;;;74.83;39.93;;;;;;;;;;5038672;28;20571;-80
2023/10/13 04:00:29;;;;;;;73.93;39.80;;;;;;;;;;5037878;28;20449;-83
2023/10/13 04:03:08;;;;;;;76.37;40.10;;;;;;;;;;5038357;28;20433;-81
2023/10/13 04:05:40;;;;;;;69.20;36.57;;;;;;;;;;5035292;28;20460;-80
2023/10/13 04:16:51;;;;;;;64.20;35.50;;;;;;;;;;5037004;28;20460;-81
2023/10/13 04:19:23;;;;;;;57.70;35.27;;;;;;;;;;5023235;28;20444;-81
2023/10/13 04:22:14;;;;;;;60.50;35.37;;;;;;;;;;5020943;28;20523;-83
2023/10/13 04:27:53;;;;;;;61.93;33.33;;;;;;;;;;5037294;28;20457;-80
2023/10/13 04:30:26;;;;;;;58.10;32.60;;;;;;;;;;5038163;28;20957;-80
2023/10/13 04:35:37;;;;;;;68.13;37.43;;;;;;;;;;5040868;28;20436;-82
2023/10/13 04:38:17;;;;;;;58.07;33.23;;;;;;;;;;5038783;28;20460;-82
2023/10/13 04:40:58;;;;;;;60.03;33.67;;;;;;;;;;5038047;28;20424;-82
2023/10/13 04:43:33;;;;;;;69.90;34.20;;;;;;;;;;5038302;28;20457;-82
2023/10/13 04:46:14;;;;;;;61.97;33.77;;;;;;;;;;5037991;28;20474;-81
2023/10/13 04:48:39;;;;;;;62.97;35.97;;;;;;;;;;5037222;28;20449;-82
2023/10/13 04:54:04;;;;;;;55.80;32.70;;;;;;;;;;5038208;28;20221;-80
2023/10/13 04:59:35;;;;;;;57.87;34.63;;;;;;;;;;5038148;28;20512;-82
2023/10/13 05:49:08;;;;;;;45.63;30.57;;;;;;;;;;5035852;28;20400;-81
2023/10/13 05:51:32;;;;;;;52.73;32.60;;;;;;;;;;5034093;28;21036;-81
2023/10/13 06:29:48;;;;;;;41.80;28.43;;;;;;;;;;5034235;28;20436;-81
2023/10/13 06:32:16;;;;;;;44.53;29.73;;;;;;;;;;5033744;28;20471;-81
2023/10/13 06:34:44;;;;;;;42.60;29.17;;;;;;;;;;5032730;28;20471;-81
2023/10/13 06:37:22;;;;;;;43.80;28.97;;;;;;;;;;5033535;28;20488;-81
2023/10/13 06:39:49;;;;;;;39.90;28.13;;;;;;;;;;5034367;28;20424;-81
2023/10/13 06:42:16;;;;;;;37.37;26.03;;;;;;;;;;5033960;28;20990;-81
2023/10/13 06:44:45;;;;;;;41.40;26.00;;;;;;;;;;5033976;28;20461;-81
2023/10/13 06:47:11;;;;;;;36.80;25.30;;;;;;;;;;5032541;28;20523;-81
2023/10/13 06:49:39;;;;;;;34.27;25.37;;;;;;;;;;5034324;28;20447;-81
2023/10/13 06:52:07;;;;;;;41.23;25.10;;;;;;;;;;5033961;28;20478;-82
2023/10/13 06:54:35;;;;;;;38.93;25.53;;;;;;;;;;5034451;28;20471;-82
2023/10/13 06:57:03;;;;;;;32.10;22.57;;;;;;;;;;5033607;28;20500;-82
2023/10/13 06:59:32;;;;;;;32.70;22.80;;;;;;;;;;5033419;28;20974;-82
2023/10/13 07:02:04;;;;;;;32.90;22.70;;;;;;;;;;5032861;28;20464;-81
2023/10/13 07:04:30;;;;;;;30.67;23.10;;;;;;;;;;5033846;28;20981;-82
2023/10/13 07:06:57;;;;;;;28.20;22.70;;;;;;;;;;5032519;28;20480;-81
2023/10/13 07:09:49;;;;;;;33.70;22.17;;;;;;;;;;5033618;28;20432;-81
2023/10/13 07:12:17;;;;;;;28.00;21.60;;;;;;;;;;5033606;28;20527;-82
2023/10/13 07:14:52;;;;;;;28.37;20.20;;;;;;;;;;5034104;28;20464;-82
2023/10/13 07:17:23;;;;;;;31.97;22.77;;;;;;;;;;5032522;28;20491;-81
2023/10/13 07:19:53;;;;;;;30.77;22.30;;;;;;;;;;5033131;28;20425;-82
2023/10/13 07:22:20;;;;;;;33.03;22.30;;;;;;;;;;5032396;28;20844;-82
2023/10/13 07:24:49;;;;;;;33.87;23.87;;;;;;;;;;5032550;28;20468;-82
2023/10/13 07:27:22;;;;;;;36.03;23.77;;;;;;;;;;5033527;28;20472;-82
2023/10/13 07:29:54;;;;;;;33.47;25.50;;;;;;;;;;5033798;28;20487;-82
2023/10/13 07:32:24;;;;;;;30.00;24.93;;;;;;;;;;5032142;28;20472;-81
2023/10/13 07:34:50;;;;;;;34.67;24.37;;;;;;;;;;5033687;28;20465;-82
2023/10/13 07:37:18;;;;;;;32.27;25.67;;;;;;;;;;5031927;28;20480;-82
2023/10/13 07:39:50;;;;;;;35.40;23.70;;;;;;;;;;5033500;28;20444;-82
2023/10/13 07:42:19;;;;;;;33.63;24.80;;;;;;;;;;5032658;28;20998;-82
2023/10/13 07:44:46;;;;;;;37.77;24.60;;;;;;;;;;5034759;28;20468;-82
2023/10/13 07:47:14;;;;;;;35.60;25.57;;;;;;;;;;5036378;28;20477;-82
2023/10/13 07:49:40;;;;;;;33.30;24.87;;;;;;;;;;5036721;28;20447;-82
2023/10/13 07:52:36;;;;;;;32.43;25.40;;;;;;;;;;5036537;28;20484;-82
2023/10/13 07:55:11;;;;;;;33.73;24.60;;;;;;;;;;5035635;28;20500;-82
2023/10/13 07:57:53;;;;;;;39.27;25.70;;;;;;;;;;5020052;28;20476;-80
2023/10/13 08:00:29;;;;;;;29.97;24.27;;;;;;;;;;5037223;28;20495;-83
2023/10/13 08:03:07;;;;;;;30.60;23.87;;;;;;;;;;5036180;28;20947;-80
2023/10/13 08:05:42;;;;;;;27.93;22.57;;;;;;;;;;5035141;28;20945;-82
2023/10/13 08:08:14;;;;;;;28.70;22.70;;;;;;;;;;5035933;28;20474;-83
2023/10/13 08:10:42;;;;;;;28.00;21.63;;;;;;;;;;5036345;28;20509;-82
2023/10/13 08:13:12;;;;;;;33.20;23.80;;;;;;;;;;5036408;28;21036;-82
2023/10/13 08:15:47;;;;;;;27.57;21.40;;;;;;;;;;5036117;28;20899;-83
2023/10/13 08:18:17;;;;;;;25.87;20.90;;;;;;;;;;5037029;28;20518;-84
2023/10/13 08:20:44;;;;;;;26.87;20.07;;;;;;;;;;5036594;28;20543;-83
2023/10/13 08:23:14;;;;;;;21.20;18.40;;;;;;;;;;5037137;28;20838;-84
2023/10/13 08:31:14;;;;;;;29.77;19.30;;;;;;;;;;5036580;28;20559;-83
2023/10/13 08:33:46;;;;;;;20.43;15.07;;;;;;;;;;5035550;28;20496;-83
2023/10/13 08:36:27;;;;;;;18.30;14.17;;;;;;;;;;5036486;28;20563;-81
2023/10/13 08:38:55;;;;;;;20.40;13.03;;;;;;;;;;5036594;28;20472;-82
2023/10/13 08:41:31;;;;;;;15.43;13.33;;;;;;;;;;5036249;28;20480;-83
2023/10/13 08:44:03;;;;;;;18.40;12.27;;;;;;;;;;5036338;28;20551;-82
2023/10/13 08:46:40;;;;;;;20.10;12.60;;;;;;;;;;5036079;28;20468;-81
2023/10/13 08:49:17;;;;;;;12.97;11.27;;;;;;;;;;5037312;28;20428;-84
2023/10/13 08:51:43;;;;;;;16.70;10.40;;;;;;;;;;5036435;28;20835;-84
2023/10/13 08:54:19;;;;;;;12.53;10.20;;;;;;;;;;5035230;28;20468;-82
2023/10/13 08:56:54;;;;;;;19.73;10.40;;;;;;;;;;5034245;28;20519;-83
2023/10/13 08:59:33;;;;;;;17.40;10.70;;;;;;;;;;5036061;28;20472;-83
2023/10/13 09:02:15;;;;;;;19.90;11.13;;;;;;;;;;5034981;28;20523;-82
2023/10/13 09:04:44;;;;;;;12.40;9.90;;;;;;;;;;5036069;28;20899;-85
2023/10/13 09:07:15;;;;;;;12.17;8.20;;;;;;;;;;5034162;28;20878;-82
2023/10/13 09:12:39;;;;;;;20.60;10.13;;;;;;;;;;5029070;28;20472;-82
2023/10/13 09:15:19;;;;;;;15.03;9.60;;;;;;;;;;5020074;28;20476;-82
2023/10/13 09:17:51;;;;;;;16.27;10.37;;;;;;;;;;5035504;28;20514;-82
2023/10/13 09:20:31;;;;;;;13.80;9.30;;;;;;;;;;5035353;28;20428;-81
2023/10/13 09:23:07;;;;;;;12.07;9.80;;;;;;;;;;5034767;28;20456;-82
2023/10/13 09:25:35;;;;;;;18.30;11.70;;;;;;;;;;5034443;28;20421;-82
2023/10/13 09:28:02;;;;;;;17.37;10.77;;;;;;;;;;5035741;28;20448;-81
2023/10/13 09:30:31;;;;;;;14.30;10.40;;;;;;;;;;5034068;28;20472;-82
2023/10/13 09:33:04;;;;;;;14.20;10.20;;;;;;;;;;5035730;28;20535;-81
2023/10/13 09:35:33;;;;;;;21.87;12.00;;;;;;;;;;5035496;28;20778;-81
2023/10/13 09:38:02;;;;;;;16.87;11.07;;;;;;;;;;5035662;28;20994;-83
2023/10/13 09:40:34;;;;;;;18.10;11.30;;;;;;;;;;5017557;28;20440;-82
2023/10/13 09:43:07;;;;;;;18.90;11.20;;;;;;;;;;5035771;28;20436;-81
2023/10/13 09:45:38;;;;;;;15.50;11.07;;;;;;;;;;5035502;28;20523;-81
2023/10/13 09:48:08;;;;;;;17.77;12.03;;;;;;;;;;5036692;28;20799;-81
2023/10/13 09:50:37;;;;;;;18.10;11.07;;;;;;;;;;5035194;28;20954;-81
2023/10/13 09:53:05;;;;;;;17.53;12.60;;;;;;;;;;5035670;28;20453;-84
2023/10/13 09:55:33;;;;;;;20.13;12.50;;;;;;;;;;5035317;28;20444;-83
2023/10/13 09:58:09;;;;;;;21.40;13.40;;;;;;;;;;5034729;28;20559;-81
2023/10/13 10:00:47;;;;;;;19.93;13.63;;;;;;;;;;5035294;28;20467;-83
2023/10/13 10:03:39;;;;;;;16.50;12.97;;;;;;;;;;5035526;28;20435;-83
2023/10/13 10:06:06;;;;;;;20.50;13.40;;;;;;;;;;5034451;28;20978;-82
2023/10/13 10:08:34;;;;;;;17.13;13.43;;;;;;;;;;5034668;28;20441;-82
2023/10/13 10:11:04;;;;;;;19.40;13.80;;;;;;;;;;5034656;28;20494;-82
2023/10/13 10:13:35;;;;;;;18.53;13.90;;;;;;;;;;5036132;28;20468;-80
2023/10/13 10:16:08;;;;;;;19.50;14.00;;;;;;;;;;5035372;28;20480;-81
2023/10/13 10:18:35;;;;;;;15.70;13.87;;;;;;;;;;5034912;28;20849;-82
2023/10/13 10:21:07;;;;;;;20.47;13.50;;;;;;;;;;5035789;28;20476;-83
2023/10/13 10:23:36;;;;;;;21.23;14.10;;;;;;;;;;5035647;28;20477;-83
2023/10/13 10:26:13;;;;;;;22.00;16.33;;;;;;;;;;5036460;28;20457;-83
2023/10/13 10:28:41;;;;;;;20.33;15.90;;;;;;;;;;5036946;28;20425;-81
2023/10/13 10:31:12;;;;;;;20.20;15.60;;;;;;;;;;5036976;28;20495;-81
2023/10/13 10:33:39;;;;;;;17.97;15.57;;;;;;;;;;5036607;28;20564;-83
2023/10/13 10:36:06;;;;;;;20.93;16.33;;;;;;;;;;5035738;28;20477;-81
2023/10/13 10:38:38;;;;;;;17.73;15.70;;;;;;;;;;5036320;28;20484;-81
2023/10/13 10:41:05;;;;;;;24.00;17.47;;;;;;;;;;5035353;28;20836;-81
2023/10/13 10:43:41;;;;;;;20.77;16.73;;;;;;;;;;5037486;28;20444;-81
2023/10/13 10:46:10;;;;;;;19.17;15.77;;;;;;;;;;5036508;28;20468;-82
2023/10/13 10:48:38;;;;;;;22.33;16.17;;;;;;;;;;5036714;28;20965;-83
2023/10/13 10:51:13;;;;;;;20.37;16.47;;;;;;;;;;5035602;28;20495;-82
2023/10/13 10:53:44;;;;;;;25.10;16.27;;;;;;;;;;5035865;28;20468;-83
2023/10/13 10:56:23;;;;;;;20.30;16.37;;;;;;;;;;5037026;28;20472;-82
2023/10/13 10:58:54;;;;;;;21.90;15.20;;;;;;;;;;5036188;28;20845;-83
2023/10/13 11:01:22;;;;;;;16.20;14.50;;;;;;;;;;5036415;28;20476;-82
2023/10/13 11:03:57;;;;;;;20.67;14.37;;;;;;;;;;5036819;28;20515;-83
2023/10/13 11:06:25;;;;;;;18.60;14.50;;;;;;;;;;5035167;28;20479;-83
2023/10/13 11:09:03;;;;;;;19.07;14.33;;;;;;;;;;5037519;28;20444;-83
2023/10/13 11:11:35;;;;;;;19.33;14.20;;;;;;;;;;5037004;28;20888;-81
2023/10/13 11:14:13;;;;;;;20.87;12.73;;;;;;;;;;5036297;28;20522;-81
2023/10/13 11:16:53;;;;;;;21.27;13.30;;;;;;;;;;5035091;28;20472;-81
2023/10/13 11:19:25;;;;;;;18.03;11.70;;;;;;;;;;5038782;28;20547;-82
2023/10/13 11:21:52;;;;;;;16.07;12.80;;;;;;;;;;5040346;28;20475;-82
2023/10/13 11:24:21;;;;;;;25.37;12.53;;;;;;;;;;5040083;28;20547;-83
2023/10/13 11:26:51;;;;;;;21.03;11.20;;;;;;;;;;5039545;28;20555;-80
2023/10/13 11:29:23;;;;;;;14.37;10.27;;;;;;;;;;5041638;28;20801;-83
2023/10/13 11:31:58;;;;;;;15.63;10.70;;;;;;;;;;5039312;28;20468;-82
2023/10/13 11:34:24;;;;;;;23.07;11.30;;;;;;;;;;5043429;28;20500;-82
2023/10/13 11:36:51;;;;;;;15.40;10.83;;;;;;;;;;5041045;28;20468;-81
2023/10/13 11:39:22;;;;;;;16.60;10.47;;;;;;;;;;5042721;28;20494;-82
2023/10/13 11:41:53;;;;;;;14.20;10.87;;;;;;;;;;5040167;28;20467;-82
2023/10/13 11:44:30;;;;;;;21.07;11.43;;;;;;;;;;5040801;28;20477;-80
2023/10/13 11:47:09;;;;;;;16.07;10.57;;;;;;;;;;5040006;28;20479;-83
2023/10/13 11:49:37;;;;;;;23.13;9.63;;;;;;;;;;5040887;28;20480;-82
2023/10/13 11:52:16;;;;;;;17.77;10.87;;;;;;;;;;5039499;28;20522;-82
2023/10/13 11:54:43;;;;;;;16.60;11.27;;;;;;;;;;5041522;28;20464;-81
2023/10/13 11:57:10;;;;;;;16.80;9.40;;;;;;;;;;5041339;28;20483;-82
2023/10/13 11:59:44;;;;;;;18.70;9.07;;;;;;;;;;5040670;28;20480;-81
2023/10/13 12:04:57;;;;;;;18.13;10.20;;;;;;;;;;5041312;28;20471;-82
2023/10/13 12:07:27;;;;;;;15.27;8.90;;;;;;;;;;5039127;28;20457;-82
2023/10/13 12:10:03;;;;;;;12.87;10.00;;;;;;;;;;5040641;28;20523;-83
2023/10/13 12:12:30;;;;;;;20.23;9.13;;;;;;;;;;5038640;28;20495;-83
2023/10/13 12:15:09;;;;;;;20.13;9.53;;;;;;;;;;5040594;28;20495;-80
2023/10/13 12:17:39;;;;;;;11.90;8.57;;;;;;;;;;5040358;28;20472;-82
2023/10/13 12:20:09;;;;;;;18.80;9.70;;;;;;;;;;5022924;28;20822;-81
2023/10/13 12:22:38;;;;;;;14.20;8.77;;;;;;;;;;5038487;28;20548;-82
2023/10/13 12:25:18;;;;;;;18.87;9.17;;;;;;;;;;5040109;28;20464;-80
2023/10/13 12:27:48;;;;;;;14.60;8.60;;;;;;;;;;5040036;28;20476;-80
2023/10/13 12:30:22;;;;;;;11.80;7.70;;;;;;;;;;5039046;28;20449;-81
2023/10/13 12:33:06;;;;;;;17.83;8.73;;;;;;;;;;5038623;28;20855;-82
2023/10/13 12:35:35;;;;;;;11.50;7.63;;;;;;;;;;5022986;28;20973;-81
2023/10/13 12:38:06;;;;;;;14.80;8.90;;;;;;;;;;5039281;28;20444;-82
2023/10/13 12:49:04;;;;;;;18.50;8.23;;;;;;;;;;5039068;28;20393;-82
2023/10/13 12:51:50;;;;;;;15.43;8.67;;;;;;;;;;5024198;28;20488;-82
2023/10/13 12:54:20;;;;;;;13.80;7.87;;;;;;;;;;5040128;28;20551;-83
2023/10/13 12:56:46;;;;;;;22.00;9.90;;;;;;;;;;5039459;28;20477;-81
2023/10/13 12:59:14;;;;;;;17.53;8.17;;;;;;;;;;5039127;28;20481;-83
2023/10/13 13:01:43;;;;;;;15.70;7.80;;;;;;;;;;5039348;28;20514;-83
2023/10/13 13:04:19;;;;;;;20.37;9.40;;;;;;;;;;5039724;28;20471;-81
2023/10/13 13:06:46;;;;;;;17.10;8.57;;;;;;;;;;5039000;28;20479;-81
2023/10/13 13:09:13;;;;;;;14.07;8.77;;;;;;;;;;5038116;28;20437;-81
2023/10/13 13:11:42;;;;;;;24.50;9.73;;;;;;;;;;5038971;28;20495;-81
2023/10/13 13:14:09;;;;;;;19.83;8.33;;;;;;;;;;5037859;28;20464;-80
2023/10/13 13:16:38;;;;;;;20.63;9.30;;;;;;;;;;5038154;28;20845;-81
2023/10/13 13:19:09;;;;;;;16.97;9.40;;;;;;;;;;5038373;28;20480;-81
2023/10/13 13:21:37;;;;;;;15.83;8.37;;;;;;;;;;5038596;28;20491;-81
2023/10/13 13:24:10;;;;;;;14.40;8.43;;;;;;;;;;5038419;28;20979;-81
2023/10/13 13:26:36;;;;;;;15.13;8.60;;;;;;;;;;5036794;28;20547;-81
2023/10/13 13:29:04;;;;;;;13.67;8.73;;;;;;;;;;5038335;28;20456;-81
2023/10/13 13:31:30;;;;;;;14.63;8.57;;;;;;;;;;5036016;28;20520;-80
2023/10/13 13:33:57;;;;;;;17.40;10.17;;;;;;;;;;5039309;28;20472;-80
2023/10/13 13:36:24;;;;;;;19.37;8.90;;;;;;;;;;5038505;28;20464;-80
2023/10/13 13:39:00;;;;;;;13.50;9.10;;;;;;;;;;5038592;28;20460;-80
2023/10/13 13:41:26;;;;;;;16.87;8.70;;;;;;;;;;5036874;28;20479;-81
2023/10/13 13:43:56;;;;;;;17.43;9.50;;;;;;;;;;5037798;28;20483;-82
2023/10/13 13:46:27;;;;;;;13.73;9.33;;;;;;;;;;5037730;28;20526;-82
2023/10/13 13:48:58;;;;;;;16.00;10.10;;;;;;;;;;5038233;28;20510;-82
2023/10/13 13:51:27;;;;;;;16.27;9.07;;;;;;;;;;5035441;28;20477;-83
2023/10/13 13:53:55;;;;;;;20.93;9.50;;;;;;;;;;5036658;28;20461;-85
2023/10/13 13:56:25;;;;;;;15.37;10.17;;;;;;;;;;5036395;28;20461;-83
2023/10/13 13:58:51;;;;;;;20.03;10.37;;;;;;;;;;5037990;28;20441;-81
2023/10/13 14:01:19;;;;;;;16.30;9.57;;;;;;;;;;5038332;28;20472;-82
2023/10/13 14:03:46;;;;;;;18.93;9.47;;;;;;;;;;5037353;28;21057;-80
2023/10/13 14:06:18;;;;;;;25.47;9.73;;;;;;;;;;5036237;28;20457;-81
2023/10/13 14:08:48;;;;;;;19.67;9.30;;;;;;;;;;5037966;28;20413;-82
2023/10/13 14:11:22;;;;;;;19.23;8.17;;;;;;;;;;5036944;28;20460;-82
2023/10/13 14:13:48;;;;;;;16.40;9.07;;;;;;;;;;5036191;28;20467;-83
2023/10/13 14:16:17;;;;;;;16.10;9.80;;;;;;;;;;5036853;28;21008;-83
2023/10/13 14:18:44;;;;;;;14.37;8.77;;;;;;;;;;5037521;28;20447;-82
2023/10/13 14:21:16;;;;;;;15.50;8.97;;;;;;;;;;5035831;28;20519;-83
2023/10/13 14:23:44;;;;;;;17.03;9.00;;;;;;;;;;5037909;28;20520;-81
2023/10/13 14:26:12;;;;;;;17.67;8.80;;;;;;;;;;5032412;28;20472;-78
2023/10/13 14:28:50;;;;;;;19.50;11.27;;;;;;;;;;5036709;28;20483;-80
2023/10/13 14:31:18;;;;;;;17.60;11.97;;;;;;;;;;5036513;28;20546;-80
2023/10/13 14:33:46;;;;;;;18.07;11.87;;;;;;;;;;5036325;28;20519;-80
2023/10/13 14:36:12;;;;;;;19.83;10.03;;;;;;;;;;5035685;28;21037;-79
2023/10/13 14:38:40;;;;;;;18.77;9.10;;;;;;;;;;5037358;28;20440;-81
2023/10/13 14:41:07;;;;;;;15.90;8.83;;;;;;;;;;5030457;28;20487;-81
2023/10/13 14:43:33;;;;;;;15.23;8.80;;;;;;;;;;5036064;28;20464;-80
2023/10/13 14:46:01;;;;;;;28.77;11.43;;;;;;;;;;5031161;28;20530;-82
2023/10/13 14:48:27;;;;;;;19.07;10.93;;;;;;;;;;5035711;28;20447;-82
2023/10/13 14:50:53;;;;;;;13.83;8.60;;;;;;;;;;5036148;28;20465;-82
2023/10/13 14:53:21;;;;;;;27.37;15.70;;;;;;;;;;5036292;28;20806;-81
2023/10/13 14:55:48;;;;;;;25.77;14.57;;;;;;;;;;5037189;28;20467;-83
2023/10/13 14:58:16;;;;;;;14.03;8.50;;;;;;;;;;5036542;28;20455;-81
2023/10/13 15:00:45;;;;;;;22.83;10.37;;;;;;;;;;5035602;28;20492;-81
2023/10/13 15:03:12;;;;;;;15.87;9.23;;;;;;;;;;5036048;28;20477;-80
2023/10/13 15:05:39;;;;;;;15.17;9.53;;;;;;;;;;5034518;28;20459;-82
2023/10/13 15:08:06;;;;;;;21.03;9.40;;;;;;;;;;5035727;28;20452;-80
2023/10/13 15:10:32;;;;;;;17.47;9.53;;;;;;;;;;5033447;28;20499;-81
2023/10/13 15:12:59;;;;;;;26.10;10.37;;;;;;;;;;5017983;28;20827;-81
2023/10/13 15:15:26;;;;;;;18.80;10.40;;;;;;;;;;5034598;28;20457;-82
2023/10/13 15:17:53;;;;;;;20.10;11.60;;;;;;;;;;5034517;28;20814;-81
2023/10/13 15:20:21;;;;;;;24.33;9.63;;;;;;;;;;5036426;28;20566;-80
2023/10/13 15:22:48;;;;;;;21.60;11.20;;;;;;;;;;5035168;28;20508;-83
2023/10/13 15:25:28;;;;;;;25.27;10.60;;;;;;;;;;5035815;28;20468;-85
2023/10/13 15:27:58;;;;;;;18.60;10.07;;;;;;;;;;5034904;28;20808;-82
2023/10/13 15:30:26;;;;;;;19.17;9.37;;;;;;;;;;5036636;28;20448;-84
2023/10/13 15:32:53;;;;;;;14.50;9.77;;;;;;;;;;5036743;28;20457;-79
2023/10/13 15:35:22;;;;;;;12.20;9.40;;;;;;;;;;5036095;28;20970;-82
2023/10/13 15:37:51;;;;;;;16.67;11.67;;;;;;;;;;5034394;28;20989;-84
2023/10/13 15:40:18;;;;;;;19.37;9.20;;;;;;;;;;5035161;28;20484;-82
2023/10/13 15:42:45;;;;;;;19.03;9.90;;;;;;;;;;5035057;28;20472;-80
2023/10/13 15:45:17;;;;;;;20.17;9.93;;;;;;;;;;5034593;28;20471;-83
2023/10/13 15:47:45;;;;;;;15.77;11.13;;;;;;;;;;5035033;28;20468;-82
2023/10/13 15:50:15;;;;;;;12.77;8.30;;;;;;;;;;5034300;28;20449;-82
2023/10/13 15:52:45;;;;;;;16.13;11.07;;;;;;;;;;5034359;28;20606;-82
2023/10/13 15:55:13;;;;;;;21.93;12.73;;;;;;;;;;5035661;28;20883;-82
2023/10/13 15:57:40;;;;;;;20.80;10.03;;;;;;;;;;5032881;28;20461;-82
2023/10/13 16:00:22;;;;;;;21.97;11.27;;;;;;;;;;5035118;28;20481;-82
2023/10/13 16:02:50;;;;;;;12.83;9.40;;;;;;;;;;5034240;28;20473;-80
2023/10/13 16:05:19;;;;;;;23.13;12.33;;;;;;;;;;5034509;28;20510;-81
2023/10/13 16:07:47;;;;;;;13.97;8.43;;;;;;;;;;5036647;28;20456;-80
2023/10/13 16:10:14;;;;;;;17.60;9.30;;;;;;;;;;5036271;28;20447;-80
2023/10/13 16:12:40;;;;;;;20.83;10.50;;;;;;;;;;5035343;28;20465;-79
2023/10/13 16:15:13;;;;;;;25.40;9.40;;;;;;;;;;5035681;28;20989;-80
2023/10/13 16:17:39;;;;;;;17.13;8.20;;;;;;;;;;5035866;28;20573;-80
2023/10/13 16:20:15;;;;;;;13.30;9.30;;;;;;;;;;5037310;28;20480;-80
2023/10/13 16:22:43;;;;;;;15.40;8.67;;;;;;;;;;5022824;28;21055;-80
2023/10/13 16:25:12;;;;;;;17.00;9.87;;;;;;;;;;5036240;28;20468;-80
2023/10/13 16:27:41;;;;;;;17.57;10.97;;;;;;;;;;5038272;28;20445;-79
2023/10/13 16:30:10;;;;;;;12.70;8.83;;;;;;;;;;5032931;28;20833;-80
2023/10/13 16:32:36;;;;;;;14.43;8.90;;;;;;;;;;5036883;28;21020;-80
2023/10/13 16:35:04;;;;;;;16.47;8.53;;;;;;;;;;5036457;28;20851;-81
2023/10/13 16:37:33;;;;;;;18.23;10.00;;;;;;;;;;5018365;28;20445;-80
2023/10/13 16:40:04;;;;;;;12.50;8.50;;;;;;;;;;5036320;28;20487;-82
2023/10/13 16:42:34;;;;;;;14.30;8.90;;;;;;;;;;5036318;28;20459;-82
2023/10/13 16:45:14;;;;;;;22.97;9.77;;;;;;;;;;5035816;28;20987;-81
2023/10/13 16:47:42;;;;;;;17.97;9.77;;;;;;;;;;5036269;28;20427;-81